sensor_id;sensor_type;location;lat;lon;timestamp;pressure;altitude;pressure_sealevel;temperature;humidity
5703;BME280;2876;51.738;10.050;2023-02-14T00:00:31;101259.16;;;1.66;100.00
5703;BME280;2876;51.738;10.050;2023-02-14T00:06:33;101264.00;;;1.60;100.00
5703;BME280;2876;51.738;10.050;2023-02-14T00:12:36;101264.16;;;1.57;100.00
5703;BME280;2876;51.738;10.050;2023-02-14T00:18:38;101259.81;;;1.41;100.00
5703;BME280;2876;51.738;10.050;2023-02-14T00:24:58;101259.31;;;1.35;100.00
5703;BME280;2876;51.738;10.050;2023-02-14T00:31:00;101256.06;;;1.60;100.00
5703;BME280;2876;51.738;10.050;2023-02-14T00:37:03;101254.16;;;1.33;100.00
5703;BME280;2876;51.738;10.050;2023-02-14T00:43:05;101264.31;;;1.25;100.00
5703;BME280;2876;51.738;10.050;2023-02-14T00:49:07;101265.16;;;1.25;100.00
5703;BME280;2876;51.738;10.050;2023-02-14T00:55:09;101272.69;;;1.17;100.00
5703;BME280;2876;51.738;10.050;2023-02-14T01:01:12;101260.81;;;1.10;100.00
5703;BME280;2876;51.738;10.050;2023-02-14T01:07:14;101267.09;;;1.08;100.00
5703;BME280;2876;51.738;10.050;2023-02-14T01:13:17;101264.59;;;0.90;100.00
5703;BME280;2876;51.738;10.050;2023-02-14T01:19:19;101268.88;;;0.77;100.00
5703;BME280;2876;51.738;10.050;2023-02-14T01:25:21;101267.44;;;0.87;100.00
5703;BME280;2876;51.738;10.050;2023-02-14T01:31:27;101268.09;;;0.91;100.00
5703;BME280;2876;51.738;10.050;2023-02-14T01:37:29;101267.72;;;0.83;100.00
5703;BME280;2876;51.738;10.050;2023-02-14T01:50:21;101282.81;;;0.65;100.00
5703;BME280;2876;51.738;10.050;2023-02-14T01:56:32;101278.53;;;0.62;100.00
5703;BME280;2876;51.738;10.050;2023-02-14T02:02:36;101282.41;;;0.57;100.00
5703;BME280;2876;51.738;10.050;2023-02-14T02:08:48;101275.94;;;0.46;100.00
5703;BME280;2876;51.738;10.050;2023-02-14T02:14:54;101260.53;;;0.55;100.00
5703;BME280;2876;51.738;10.050;2023-02-14T02:35:30;101243.91;;;0.53;100.00
5703;BME280;2876;51.738;10.050;2023-02-14T02:48:15;101241.56;;;0.16;100.00
5703;BME280;2876;51.738;10.050;2023-02-14T02:54:39;101235.34;;;0.17;100.00
5703;BME280;2876;51.738;10.050;2023-02-14T03:00:43;101235.41;;;0.32;100.00
5703;BME280;2876;51.738;10.050;2023-02-14T03:06:47;101235.75;;;0.25;100.00
5703;BME280;2876;51.738;10.050;2023-02-14T03:19:25;101229.16;;;0.18;100.00
5703;BME280;2876;51.738;10.050;2023-02-14T03:38:35;101211.75;;;0.46;100.00
5703;BME280;2876;51.738;10.050;2023-02-14T03:44:41;101211.38;;;0.52;100.00
5703;BME280;2876;51.738;10.050;2023-02-14T03:50:45;101206.22;;;0.50;100.00
5703;BME280;2876;51.738;10.050;2023-02-14T03:56:52;101196.19;;;0.86;100.00
5703;BME280;2876;51.738;10.050;2023-02-14T04:03:05;101200.50;;;0.72;100.00
5703;BME280;2876;51.738;10.050;2023-02-14T04:09:09;101207.19;;;0.64;100.00
5703;BME280;2876;51.738;10.050;2023-02-14T04:15:12;101196.41;;;0.53;100.00
5703;BME280;2876;51.738;10.050;2023-02-14T04:21:15;101188.34;;;0.70;100.00
5703;BME280;2876;51.738;10.050;2023-02-14T04:27:17;101190.53;;;0.47;100.00
5703;BME280;2876;51.738;10.050;2023-02-14T04:33:18;101202.09;;;0.45;100.00
5703;BME280;2876;51.738;10.050;2023-02-14T04:39:20;101204.91;;;0.58;100.00
5703;BME280;2876;51.738;10.050;2023-02-14T04:45:22;101202.19;;;0.59;100.00
5703;BME280;2876;51.738;10.050;2023-02-14T04:51:24;101197.88;;;0.72;100.00
5703;BME280;2876;51.738;10.050;2023-02-14T04:57:28;101194.63;;;0.83;100.00
5703;BME280;2876;51.738;10.050;2023-02-14T05:03:30;101201.59;;;0.98;100.00
5703;BME280;2876;51.738;10.050;2023-02-14T05:09:32;101202.53;;;0.83;100.00
5703;BME280;2876;51.738;10.050;2023-02-14T05:15:34;101202.94;;;0.91;100.00
5703;BME280;2876;51.738;10.050;2023-02-14T05:21:39;101202.19;;;1.04;100.00
5703;BME280;2876;51.738;10.050;2023-02-14T05:27:41;101201.44;;;1.01;100.00
5703;BME280;2876;51.738;10.050;2023-02-14T05:33:43;101193.97;;;0.94;100.00
5703;BME280;2876;51.738;10.050;2023-02-14T05:39:45;101187.94;;;0.92;100.00
5703;BME280;2876;51.738;10.050;2023-02-14T05:45:47;101185.44;;;0.74;100.00
5703;BME280;2876;51.738;10.050;2023-02-14T05:51:49;101186.34;;;0.59;100.00
5703;BME280;2876;51.738;10.050;2023-02-14T05:57:51;101189.97;;;0.42;100.00
5703;BME280;2876;51.738;10.050;2023-02-14T06:03:53;101194.97;;;0.31;100.00
5703;BME280;2876;51.738;10.050;2023-02-14T06:09:55;101204.78;;;0.29;100.00
5703;BME280;2876;51.738;10.050;2023-02-14T06:15:57;101207.69;;;0.24;100.00
5703;BME280;2876;51.738;10.050;2023-02-14T06:21:59;101205.38;;;0.34;100.00
5703;BME280;2876;51.738;10.050;2023-02-14T06:28:01;101210.38;;;0.55;100.00
5703;BME280;2876;51.738;10.050;2023-02-14T06:34:03;101214.97;;;0.51;100.00
5703;BME280;2876;51.738;10.050;2023-02-14T06:40:06;101213.19;;;0.52;100.00
5703;BME280;2876;51.738;10.050;2023-02-14T06:46:10;101212.50;;;0.48;100.00
5703;BME280;2876;51.738;10.050;2023-02-14T06:52:12;101213.66;;;0.58;100.00
5703;BME280;2876;51.738;10.050;2023-02-14T06:58:14;101226.00;;;0.58;100.00
5703;BME280;2876;51.738;10.050;2023-02-14T07:04:16;101215.50;;;0.42;100.00
5703;BME280;2876;51.738;10.050;2023-02-14T07:10:18;101215.81;;;0.52;100.00
5703;BME280;2876;51.738;10.050;2023-02-14T07:16:20;101214.44;;;0.60;100.00
5703;BME280;2876;51.738;10.050;2023-02-14T07:22:22;101216.63;;;0.68;100.00
5703;BME280;2876;51.738;10.050;2023-02-14T07:28:24;101208.53;;;0.71;100.00
5703;BME280;2876;51.738;10.050;2023-02-14T07:34:26;101202.03;;;0.76;100.00
5703;BME280;2876;51.738;10.050;2023-02-14T07:40:28;101213.50;;;0.91;100.00
5703;BME280;2876;51.738;10.050;2023-02-14T07:46:30;101208.38;;;0.88;100.00
5703;BME280;2876;51.738;10.050;2023-02-14T07:52:32;101200.38;;;1.04;100.00
5703;BME280;2876;51.738;10.050;2023-02-14T07:58:34;101202.69;;;1.10;100.00
5703;BME280;2876;51.738;10.050;2023-02-14T08:04:36;101203.97;;;1.03;100.00
5703;BME280;2876;51.738;10.050;2023-02-14T08:10:38;101211.75;;;1.20;100.00
5703;BME280;2876;51.738;10.050;2023-02-14T08:16:40;101216.88;;;1.38;100.00
5703;BME280;2876;51.738;10.050;2023-02-14T08:22:42;101217.22;;;1.32;100.00
5703;BME280;2876;51.738;10.050;2023-02-14T08:28:44;101217.31;;;1.59;100.00
5703;BME280;2876;51.738;10.050;2023-02-14T08:34:46;101214.97;;;1.83;100.00
5703;BME280;2876;51.738;10.050;2023-02-14T08:40:48;101215.38;;;2.03;100.00
5703;BME280;2876;51.738;10.050;2023-02-14T08:46:50;101210.81;;;2.20;100.00
5703;BME280;2876;51.738;10.050;2023-02-14T08:52:52;101214.41;;;2.19;100.00
5703;BME280;2876;51.738;10.050;2023-02-14T08:58:54;101203.81;;;2.19;100.00
5703;BME280;2876;51.738;10.050;2023-02-14T09:04:56;101196.69;;;2.34;100.00
5703;BME280;2876;51.738;10.050;2023-02-14T09:10:58;101201.25;;;2.44;100.00
5703;BME280;2876;51.738;10.050;2023-02-14T09:17:01;101206.94;;;2.65;100.00
5703;BME280;2876;51.738;10.050;2023-02-14T09:23:06;101191.47;;;2.59;100.00
5703;BME280;2876;51.738;10.050;2023-02-14T09:29:07;101194.97;;;2.60;100.00
5703;BME280;2876;51.738;10.050;2023-02-14T09:35:11;101193.75;;;2.91;100.00
5703;BME280;2876;51.738;10.050;2023-02-14T09:42:01;101185.19;;;3.38;100.00
5703;BME280;2876;51.738;10.050;2023-02-14T09:48:28;101183.22;;;3.78;100.00
5703;BME280;2876;51.738;10.050;2023-02-14T09:54:30;101174.25;;;3.92;100.00
5703;BME280;2876;51.738;10.050;2023-02-14T10:00:48;101172.56;;;3.91;100.00
5703;BME280;2876;51.738;10.050;2023-02-14T10:14:18;101179.25;;;4.21;100.00
5703;BME280;2876;51.738;10.050;2023-02-14T10:20:33;101172.22;;;4.44;100.00
5703;BME280;2876;51.738;10.050;2023-02-14T10:26:39;101172.72;;;4.49;100.00
5703;BME280;2876;51.738;10.050;2023-02-14T10:32:47;101174.63;;;4.71;100.00
5703;BME280;2876;51.738;10.050;2023-02-14T10:51:43;101157.84;;;4.70;100.00
5703;BME280;2876;51.738;10.050;2023-02-14T10:57:53;101140.34;;;4.90;100.00
5703;BME280;2876;51.738;10.050;2023-02-14T11:04:01;101141.03;;;5.27;100.00
5703;BME280;2876;51.738;10.050;2023-02-14T11:10:13;101127.09;;;5.57;100.00
5703;BME280;2876;51.738;10.050;2023-02-14T11:16:32;101122.84;;;5.66;100.00
5703;BME280;2876;51.738;10.050;2023-02-14T11:22:34;101119.50;;;6.07;100.00
5703;BME280;2876;51.738;10.050;2023-02-14T11:29:12;101111.53;;;6.60;100.00
5703;BME280;2876;51.738;10.050;2023-02-14T11:35:25;101099.50;;;6.66;100.00
5703;BME280;2876;51.738;10.050;2023-02-14T11:41:53;101096.38;;;6.82;100.00
5703;BME280;2876;51.738;10.050;2023-02-14T11:54:40;101077.88;;;8.97;91.08
5703;BME280;2876;51.738;10.050;2023-02-14T12:00:51;101078.59;;;9.26;90.42
5703;BME280;2876;51.738;10.050;2023-02-14T12:06:54;101070.47;;;9.18;88.75
5703;BME280;2876;51.738;10.050;2023-02-14T12:19:17;101052.19;;;8.57;87.11
5703;BME280;2876;51.738;10.050;2023-02-14T12:25:25;101042.19;;;8.69;87.47
5703;BME280;2876;51.738;10.050;2023-02-14T12:31:33;101034.78;;;9.27;83.74
5703;BME280;2876;51.738;10.050;2023-02-14T12:50:55;101021.91;;;10.74;77.39
5703;BME280;2876;51.738;10.050;2023-02-14T12:57:33;101007.63;;;11.41;72.34
5703;BME280;2876;51.738;10.050;2023-02-14T13:03:49;101005.06;;;11.90;70.64
5703;BME280;2876;51.738;10.050;2023-02-14T13:16:50;100980.97;;;11.06;74.03
5703;BME280;2876;51.738;10.050;2023-02-14T13:23:02;100962.31;;;11.79;71.96
5703;BME280;2876;51.738;10.050;2023-02-14T13:29:12;100955.47;;;12.09;70.50
5703;BME280;2876;51.738;10.050;2023-02-14T13:35:18;100947.41;;;11.93;71.26
5703;BME280;2876;51.738;10.050;2023-02-14T13:41:22;100952.00;;;12.64;69.58
5703;BME280;2876;51.738;10.050;2023-02-14T13:47:26;100940.00;;;13.77;64.33
5703;BME280;2876;51.738;10.050;2023-02-14T13:53:43;100933.72;;;15.47;61.82
5703;BME280;2876;51.738;10.050;2023-02-14T13:59:45;100929.09;;;18.50;52.36
5703;BME280;2876;51.738;10.050;2023-02-14T14:11:57;100915.88;;;16.17;56.99
5703;BME280;2876;51.738;10.050;2023-02-14T14:24:32;100906.97;;;14.12;62.59
5703;BME280;2876;51.738;10.050;2023-02-14T14:30:37;100905.00;;;13.14;66.27
5703;BME280;2876;51.738;10.050;2023-02-14T14:36:45;100901.50;;;12.19;69.72
5703;BME280;2876;51.738;10.050;2023-02-14T14:42:48;100886.22;;;11.79;71.62
5703;BME280;2876;51.738;10.050;2023-02-14T14:48:52;100875.97;;;11.33;74.20
5703;BME280;2876;51.738;10.050;2023-02-14T14:54:56;100875.13;;;11.57;74.45
5703;BME280;2876;51.738;10.050;2023-02-14T15:00:59;100867.75;;;11.92;73.50
5703;BME280;2876;51.738;10.050;2023-02-14T15:07:31;100862.69;;;11.32;74.44
5703;BME280;2876;51.738;10.050;2023-02-14T15:13:44;100854.53;;;10.83;76.95
5703;BME280;2876;51.738;10.050;2023-02-14T15:20:17;100851.53;;;10.94;76.56
5703;BME280;2876;51.738;10.050;2023-02-14T15:26:31;100845.31;;;10.85;77.43
5703;BME280;2876;51.738;10.050;2023-02-14T15:32:36;100830.38;;;10.83;76.31
5703;BME280;2876;51.738;10.050;2023-02-14T15:38:39;100841.16;;;10.49;77.38
5703;BME280;2876;51.738;10.050;2023-02-14T15:44:42;100825.31;;;10.03;79.51
5703;BME280;2876;51.738;10.050;2023-02-14T15:50:54;100828.00;;;10.03;80.22
5703;BME280;2876;51.738;10.050;2023-02-14T15:56:57;100825.28;;;9.69;80.97
5703;BME280;2876;51.738;10.050;2023-02-14T16:03:04;100823.03;;;9.21;82.67
5703;BME280;2876;51.738;10.050;2023-02-14T16:09:24;100823.44;;;8.62;84.63
5703;BME280;2876;51.738;10.050;2023-02-14T16:15:33;100816.41;;;7.97;86.49
5703;BME280;2876;51.738;10.050;2023-02-14T16:21:35;100815.94;;;7.64;88.79
5703;BME280;2876;51.738;10.050;2023-02-14T16:27:37;100815.84;;;7.27;90.60
5703;BME280;2876;51.738;10.050;2023-02-14T16:33:40;100817.25;;;7.02;91.00
5703;BME280;2876;51.738;10.050;2023-02-14T16:39:42;100817.75;;;6.57;92.30
5703;BME280;2876;51.738;10.050;2023-02-14T16:45:44;100818.56;;;6.48;93.81
5703;BME280;2876;51.738;10.050;2023-02-14T16:51:46;100818.72;;;6.16;94.81
5703;BME280;2876;51.738;10.050;2023-02-14T16:57:49;100815.31;;;6.04;95.87
5703;BME280;2876;51.738;10.050;2023-02-14T17:03:53;100818.44;;;5.88;96.36
5703;BME280;2876;51.738;10.050;2023-02-14T17:10:05;100823.50;;;5.70;97.73
5703;BME280;2876;51.738;10.050;2023-02-14T17:16:09;100818.34;;;5.69;98.45
5703;BME280;2876;51.738;10.050;2023-02-14T17:22:13;100826.97;;;5.61;98.62
5703;BME280;2876;51.738;10.050;2023-02-14T17:28:15;100825.28;;;5.60;99.34
5703;BME280;2876;51.738;10.050;2023-02-14T17:34:17;100831.38;;;5.51;99.58
5703;BME280;2876;51.738;10.050;2023-02-14T17:40:19;100830.31;;;5.63;100.00
5703;BME280;2876;51.738;10.050;2023-02-14T17:46:21;100814.13;;;5.45;100.00
5703;BME280;2876;51.738;10.050;2023-02-14T17:52:24;100827.66;;;5.21;100.00
5703;BME280;2876;51.738;10.050;2023-02-14T17:58:26;100827.34;;;5.03;100.00
5703;BME280;2876;51.738;10.050;2023-02-14T18:04:28;100830.66;;;4.96;100.00
5703;BME280;2876;51.738;10.050;2023-02-14T18:10:36;100834.31;;;4.83;100.00
5703;BME280;2876;51.738;10.050;2023-02-14T18:16:39;100827.59;;;4.68;100.00
5703;BME280;2876;51.738;10.050;2023-02-14T18:22:41;100824.94;;;4.68;100.00
5703;BME280;2876;51.738;10.050;2023-02-14T18:28:43;100820.13;;;4.62;100.00
5703;BME280;2876;51.738;10.050;2023-02-14T18:34:45;100810.47;;;4.61;100.00
5703;BME280;2876;51.738;10.050;2023-02-14T18:40:47;100816.00;;;4.58;100.00
5703;BME280;2876;51.738;10.050;2023-02-14T18:46:49;100812.53;;;4.46;100.00
5703;BME280;2876;51.738;10.050;2023-02-14T18:52:51;100821.72;;;4.42;100.00
5703;BME280;2876;51.738;10.050;2023-02-14T18:58:59;100808.09;;;4.24;100.00
5703;BME280;2876;51.738;10.050;2023-02-14T19:05:01;100802.66;;;4.37;100.00
5703;BME280;2876;51.738;10.050;2023-02-14T19:11:24;100799.41;;;4.22;100.00
5703;BME280;2876;51.738;10.050;2023-02-14T19:17:27;100804.25;;;4.28;100.00
5703;BME280;2876;51.738;10.050;2023-02-14T19:23:29;100800.13;;;4.13;100.00
5703;BME280;2876;51.738;10.050;2023-02-14T19:29:30;100794.94;;;3.89;100.00
5703;BME280;2876;51.738;10.050;2023-02-14T19:35:32;100796.66;;;3.79;100.00
5703;BME280;2876;51.738;10.050;2023-02-14T19:41:34;100805.19;;;3.71;100.00
5703;BME280;2876;51.738;10.050;2023-02-14T19:47:37;100787.34;;;3.62;100.00
5703;BME280;2876;51.738;10.050;2023-02-14T19:53:48;100794.06;;;3.44;100.00
5703;BME280;2876;51.738;10.050;2023-02-14T19:59:50;100786.72;;;3.36;100.00
5703;BME280;2876;51.738;10.050;2023-02-14T20:05:53;100778.75;;;3.36;100.00
5703;BME280;2876;51.738;10.050;2023-02-14T20:11:57;100777.50;;;3.29;100.00
5703;BME280;2876;51.738;10.050;2023-02-14T20:18:00;100776.53;;;3.19;100.00
5703;BME280;2876;51.738;10.050;2023-02-14T20:24:03;100777.81;;;3.13;100.00
5703;BME280;2876;51.738;10.050;2023-02-14T20:30:06;100777.22;;;3.10;100.00
5703;BME280;2876;51.738;10.050;2023-02-14T20:36:08;100767.13;;;3.15;100.00
5703;BME280;2876;51.738;10.050;2023-02-14T20:42:10;100759.78;;;3.18;100.00
5703;BME280;2876;51.738;10.050;2023-02-14T20:48:12;100755.91;;;3.22;100.00
5703;BME280;2876;51.738;10.050;2023-02-14T20:54:16;100741.94;;;3.20;100.00
5703;BME280;2876;51.738;10.050;2023-02-14T21:00:19;100754.22;;;3.21;100.00
5703;BME280;2876;51.738;10.050;2023-02-14T21:06:24;100746.41;;;3.20;100.00
5703;BME280;2876;51.738;10.050;2023-02-14T21:12:26;100746.41;;;3.20;100.00
5703;BME280;2876;51.738;10.050;2023-02-14T21:18:28;100748.16;;;3.08;100.00
5703;BME280;2876;51.738;10.050;2023-02-14T21:24:31;100748.50;;;3.03;100.00
5703;BME280;2876;51.738;10.050;2023-02-14T21:30:33;100734.28;;;2.93;100.00
5703;BME280;2876;51.738;10.050;2023-02-14T21:36:35;100728.84;;;2.84;100.00
5703;BME280;2876;51.738;10.050;2023-02-14T21:42:37;100726.56;;;2.90;100.00
5703;BME280;2876;51.738;10.050;2023-02-14T21:48:39;100726.81;;;2.87;100.00
5703;BME280;2876;51.738;10.050;2023-02-14T21:54:59;100731.06;;;2.77;100.00
5703;BME280;2876;51.738;10.050;2023-02-14T22:01:01;100738.16;;;2.65;100.00
5703;BME280;2876;51.738;10.050;2023-02-14T22:07:04;100739.50;;;2.71;100.00
5703;BME280;2876;51.738;10.050;2023-02-14T22:13:06;100734.44;;;2.44;100.00
5703;BME280;2876;51.738;10.050;2023-02-14T22:19:13;100735.84;;;2.37;100.00
5703;BME280;2876;51.738;10.050;2023-02-14T22:25:16;100736.44;;;2.16;100.00
5703;BME280;2876;51.738;10.050;2023-02-14T22:31:18;100739.59;;;2.21;100.00
5703;BME280;2876;51.738;10.050;2023-02-14T22:37:20;100734.41;;;1.96;100.00
5703;BME280;2876;51.738;10.050;2023-02-14T22:43:22;100738.22;;;1.79;100.00
5703;BME280;2876;51.738;10.050;2023-02-14T22:49:24;100728.19;;;2.08;100.00
5703;BME280;2876;51.738;10.050;2023-02-14T22:55:26;100720.56;;;2.16;100.00
5703;BME280;2876;51.738;10.050;2023-02-14T23:01:29;100724.69;;;1.84;100.00
5703;BME280;2876;51.738;10.050;2023-02-14T23:07:31;100716.63;;;1.72;100.00
5703;BME280;2876;51.738;10.050;2023-02-14T23:13:34;100722.50;;;1.65;100.00
5703;BME280;2876;51.738;10.050;2023-02-14T23:19:55;100719.28;;;1.72;100.00
5703;BME280;2876;51.738;10.050;2023-02-14T23:26:18;100705.78;;;1.64;100.00
5703;BME280;2876;51.738;10.050;2023-02-14T23:32:20;100714.44;;;1.79;100.00
5703;BME280;2876;51.738;10.050;2023-02-14T23:38:22;100704.69;;;1.67;100.00
5703;BME280;2876;51.738;10.050;2023-02-14T23:44:26;100699.97;;;1.59;100.00
5703;BME280;2876;51.738;10.050;2023-02-14T23:50:28;100708.56;;;1.50;100.00
5703;BME280;2876;51.738;10.050;2023-02-14T23:56:30;100697.94;;;1.75;100.00
